Time;durP1;ratioP1;P1;durP2;ratioP2;P2;SDS_P1;SDS_P2;PMS_P1;PMS_P2;Temp;Humidity;BMP_temperature;BMP_pressure;BME280_temperature;BME280_humidity;BME280_pressure;Samples;Min_cycle;Max_cycle;Signal;HPM_P1;HPM_P2
2022/12/31 00:01:29;;;;;;;2.70;1.70;;;;;;;-141.59;100.00;61776.25;5032013;28;20206;-78
2022/12/31 00:03:57;;;;;;;3.03;1.50;;;;;;;-141.59;100.00;61776.25;5041421;28;20302;-78
2022/12/31 00:06:25;;;;;;;1.63;1.27;;;;;;;-141.59;100.00;61776.25;5027786;28;20223;-78
2022/12/31 00:08:54;;;;;;;2.40;1.40;;;;;;;-141.59;100.00;61776.25;5053891;28;20206;-78
2022/12/31 00:11:24;;;;;;;1.83;1.37;;;;;;;-141.59;100.00;61776.25;5042533;28;20226;-77
2022/12/31 00:13:52;;;;;;;1.83;1.00;;;;;;;-141.59;100.00;61776.25;5032635;28;20211;-77
2022/12/31 00:16:23;;;;;;;1.73;1.60;;;;;;;-141.59;100.00;61776.25;5024687;28;20203;-77
2022/12/31 00:18:52;;;;;;;1.50;1.20;;;;;;;-141.59;100.00;61776.25;5016110;28;20270;-78
2022/12/31 00:21:19;;;;;;;1.53;1.30;;;;;;;-141.59;100.00;61776.25;5030339;28;20215;-78
2022/12/31 00:23:47;;;;;;;1.20;1.10;;;;;;;-141.59;100.00;61776.25;5031073;28;20218;-78
2022/12/31 00:26:16;;;;;;;1.87;1.30;;;;;;;-141.59;100.00;61776.25;5046819;28;20200;-78
2022/12/31 00:28:45;;;;;;;2.13;1.10;;;;;;;-141.59;100.00;61776.25;5026552;28;20215;-78
2022/12/31 00:31:14;;;;;;;1.40;1.10;;;;;;;-141.59;100.00;61776.25;5023024;28;20202;-77
2022/12/31 00:33:41;;;;;;;1.10;1.00;;;;;;;-141.59;100.00;61776.25;5028071;28;20215;-78
2022/12/31 00:36:12;;;;;;;1.10;1.00;;;;;;;-141.59;100.00;61776.25;5029581;28;20195;-77
2022/12/31 00:38:40;;;;;;;1.20;1.10;;;;;;;-141.59;100.00;61776.25;5027282;28;20234;-77
2022/12/31 00:41:08;;;;;;;1.10;1.00;;;;;;;-141.59;100.00;61776.25;5029381;28;20203;-78
2022/12/31 00:43:35;;;;;;;1.53;1.20;;;;;;;-141.59;100.00;61776.25;5040575;28;20214;-78
2022/12/31 00:46:05;;;;;;;1.23;1.10;;;;;;;-141.59;100.00;61776.25;5022646;28;20211;-78
2022/12/31 00:48:33;;;;;;;1.30;1.20;;;;;;;-141.59;100.00;61776.25;5029413;28;20259;-77
2022/12/31 00:51:01;;;;;;;1.40;1.10;;;;;;;-141.59;100.00;61776.25;5040852;28;20214;-78
2022/12/31 00:53:29;;;;;;;1.07;0.97;;;;;;;-141.59;100.00;61776.25;5039962;28;20242;-78
2022/12/31 00:56:00;;;;;;;1.10;1.00;;;;;;;-141.59;100.00;61776.25;5029393;28;20203;-78
2022/12/31 00:58:28;;;;;;;0.60;0.60;;;;;;;-141.59;100.00;61776.25;5031485;28;20215;-78
2022/12/31 01:00:56;;;;;;;1.30;1.00;;;;;;;-141.59;100.00;61776.25;5037510;28;20214;-78
2022/12/31 01:03:25;;;;;;;1.30;1.10;;;;;;;-141.59;100.00;61776.25;5043780;28;20228;-78
2022/12/31 01:05:52;;;;;;;1.23;1.13;;;;;;;-141.59;100.00;61776.25;5043613;28;20191;-77
2022/12/31 01:08:19;;;;;;;0.80;0.80;;;;;;;-141.59;100.00;61776.25;5020131;28;20219;-78
2022/12/31 01:13:34;;;;;;;0.77;0.77;;;;;;;-141.59;100.00;61776.25;5037651;28;20203;-78
2022/12/31 01:16:07;;;;;;;1.10;0.90;;;;;;;-141.59;100.00;61776.25;5029556;28;20191;-78
2022/12/31 01:18:35;;;;;;;1.50;0.90;;;;;;;-141.59;100.00;61776.25;5038169;28;20302;-77
2022/12/31 01:21:03;;;;;;;0.80;0.80;;;;;;;-141.59;100.00;61776.25;5028556;28;20203;-78
2022/12/31 01:23:31;;;;;;;1.80;0.93;;;;;;;-141.59;100.00;61776.25;5026796;28;20249;-77
2022/12/31 01:26:01;;;;;;;0.80;0.80;;;;;;;-141.59;100.00;61776.25;5040345;28;20214;-78
2022/12/31 01:28:28;;;;;;;0.80;0.80;;;;;;;-141.59;100.00;61776.25;5024490;28;20219;-78
2022/12/31 01:30:55;;;;;;;0.80;0.80;;;;;;;-141.59;100.00;61776.25;5033764;28;20195;-78
2022/12/31 01:33:22;;;;;;;1.63;1.10;;;;;;;-141.59;100.00;61776.25;5020306;28;20243;-78
2022/12/31 01:35:53;;;;;;;0.97;0.90;;;;;;;-141.59;100.00;61776.25;5027070;28;20198;-78
2022/12/31 01:38:20;;;;;;;0.80;0.80;;;;;;;-141.59;100.00;61776.25;5041464;28;20230;-77
2022/12/31 01:40:47;;;;;;;0.80;0.80;;;;;;;-141.59;100.00;61776.25;5022966;28;20207;-78
2022/12/31 01:43:17;;;;;;;0.70;0.70;;;;;;;-141.59;100.00;61776.25;5046538;28;20214;-78
2022/12/31 01:45:45;;;;;;;0.70;0.70;;;;;;;-141.59;100.00;61776.25;5026286;28;20249;-78
2022/12/31 01:48:16;;;;;;;0.60;0.60;;;;;;;-141.59;100.00;61776.25;5042458;28;20542;-78
2022/12/31 01:50:46;;;;;;;0.63;0.63;;;;;;;-141.59;100.00;61776.25;5051333;28;20198;-78
2022/12/31 01:53:16;;;;;;;0.70;0.70;;;;;;;-141.59;100.00;61776.25;5028738;28;20225;-77
2022/12/31 01:55:49;;;;;;;0.60;0.60;;;;;;;-141.59;100.00;61776.25;5027128;28;20277;-77
2022/12/31 01:58:20;;;;;;;0.60;0.60;;;;;;;-141.59;100.00;61776.25;5033971;28;20206;-78
2022/12/31 02:00:48;;;;;;;1.27;0.60;;;;;;;-141.59;100.00;61776.25;5026268;28;20203;-78
2022/12/31 02:03:15;;;;;;;1.10;0.50;;;;;;;-141.59;100.00;61776.25;5036264;28;20202;-78
2022/12/31 02:05:49;;;;;;;0.60;0.60;;;;;;;-141.59;100.00;61776.25;5039057;28;20205;-78
2022/12/31 02:08:18;;;;;;;0.60;0.60;;;;;;;-141.59;100.00;61776.25;5031695;28;20295;-78
2022/12/31 02:10:45;;;;;;;0.60;0.60;;;;;;;-141.59;100.00;61776.25;5032000;28;20229;-78
2022/12/31 02:13:12;;;;;;;0.60;0.60;;;;;;;-141.59;100.00;61776.25;5031697;28;20207;-77
2022/12/31 02:15:51;;;;;;;0.60;0.60;;;;;;;-141.59;100.00;61776.25;5043574;28;20207;-78
2022/12/31 02:18:30;;;;;;;0.50;0.50;;;;;;;-141.59;100.00;61776.25;5030754;28;20217;-78
2022/12/31 02:21:35;;;;;;;0.50;0.50;;;;;;;-141.59;100.00;61776.25;5017930;28;20199;-78
2022/12/31 02:24:17;;;;;;;0.50;0.50;;;;;;;-141.59;100.00;61776.25;5030847;28;20206;-78
2022/12/31 02:26:58;;;;;;;0.50;0.50;;;;;;;-141.59;100.00;61776.25;5032911;28;20198;-78
2022/12/31 02:30:08;;;;;;;0.50;0.50;;;;;;;-141.59;100.00;61776.25;5047593;28;20306;-78
2022/12/31 02:32:47;;;;;;;0.57;0.57;;;;;;;-141.59;100.00;61776.25;5038785;28;20215;-78
2022/12/31 02:35:20;;;;;;;0.50;0.50;;;;;;;-141.59;100.00;61776.25;5028365;28;20216;-78
2022/12/31 02:37:53;;;;;;;0.90;0.60;;;;;;;-141.59;100.00;61776.25;5045939;28;20243;-78
2022/12/31 02:40:22;;;;;;;1.60;0.67;;;;;;;-141.59;100.00;61776.25;5032335;28;20195;-77
2022/12/31 02:42:49;;;;;;;0.50;0.50;;;;;;;-141.59;100.00;61776.25;5044180;28;20199;-78
2022/12/31 02:45:25;;;;;;;0.67;0.67;;;;;;;-141.59;100.00;61776.25;5039665;28;20203;-78
2022/12/31 02:48:05;;;;;;;0.60;0.60;;;;;;;-141.59;100.00;61776.25;5057981;28;20321;-77
2022/12/31 02:50:54;;;;;;;0.60;0.60;;;;;;;-141.59;100.00;61776.25;5021599;28;20215;-78
2022/12/31 02:53:32;;;;;;;0.60;0.60;;;;;;;-141.59;100.00;61776.25;5026948;28;20230;-77
2022/12/31 02:56:05;;;;;;;0.50;0.50;;;;;;;-141.59;100.00;61776.25;5029062;28;20273;-78
2022/12/31 03:04:35;;;;;;;0.63;0.50;;;;;;;-141.59;100.00;61776.25;5025582;28;20294;-77
2022/12/31 03:07:04;;;;;;;0.90;0.90;;;;;;;-141.59;100.00;61776.25;5015921;28;20208;-77
2022/12/31 03:09:31;;;;;;;0.60;0.60;;;;;;;-141.59;100.00;61776.25;5025368;28;20191;-78
2022/12/31 03:14:43;;;;;;;0.60;0.60;;;;;;;-141.59;100.00;61776.25;5029416;28;20353;-77
2022/12/31 03:17:12;;;;;;;2.23;0.67;;;;;;;-141.59;100.00;61776.25;5033762;28;20207;-78
2022/12/31 03:22:29;;;;;;;2.03;0.80;;;;;;;-141.59;100.00;61776.25;5036406;28;20206;-77
2022/12/31 03:27:45;;;;;;;0.60;0.60;;;;;;;-141.59;100.00;61776.25;5022588;28;20223;-78
2022/12/31 03:30:14;;;;;;;1.00;0.90;;;;;;;-141.59;100.00;61776.25;5053865;28;20210;-78
2022/12/31 03:32:45;;;;;;;1.30;0.70;;;;;;;-141.59;100.00;61776.25;5029924;28;20261;-78
2022/12/31 03:35:13;;;;;;;1.10;0.80;;;;;;;-141.59;100.00;61776.25;5047536;28;20305;-78
2022/12/31 03:37:41;;;;;;;0.70;0.70;;;;;;;-141.59;100.00;61776.25;5041569;28;20234;-78
2022/12/31 03:40:11;;;;;;;0.70;0.70;;;;;;;-141.59;100.00;61776.25;5027584;28;20253;-77
2022/12/31 03:42:38;;;;;;;0.60;0.60;;;;;;;-141.59;100.00;61776.25;5040744;28;20280;-78
2022/12/31 03:45:07;;;;;;;0.60;0.60;;;;;;;-141.59;100.00;61776.25;5046090;28;20210;-78
2022/12/31 03:47:34;;;;;;;0.87;0.80;;;;;;;-141.59;100.00;61776.25;5025586;28;20277;-77
2022/12/31 03:50:02;;;;;;;0.70;0.70;;;;;;;-141.59;100.00;61776.25;5031356;28;20203;-78
2022/12/31 03:52:29;;;;;;;0.80;0.80;;;;;;;-141.59;100.00;61776.25;5028995;28;20200;-77
2022/12/31 03:54:56;;;;;;;1.00;1.00;;;;;;;-141.59;100.00;61776.25;5024028;28;20203;-77
2022/12/31 03:57:24;;;;;;;1.30;0.90;;;;;;;-141.59;100.00;61776.25;5026797;28;20302;-78
2022/12/31 03:59:51;;;;;;;1.33;0.83;;;;;;;-141.59;100.00;61776.25;5019192;28;20210;-78
2022/12/31 04:02:18;;;;;;;2.70;0.80;;;;;;;-141.59;100.00;61776.25;5038675;28;20233;-77
2022/12/31 04:04:44;;;;;;;2.03;0.80;;;;;;;-141.59;100.00;61776.25;5028321;28;20222;-78
2022/12/31 04:07:13;;;;;;;1.00;0.60;;;;;;;-141.59;100.00;61776.25;5025962;28;20203;-78
2022/12/31 04:09:41;;;;;;;1.90;0.70;;;;;;;-141.59;100.00;61776.25;5042642;28;20187;-78
2022/12/31 04:12:08;;;;;;;0.60;0.60;;;;;;;-141.59;100.00;61776.25;5041470;28;20604;-78
2022/12/31 04:14:35;;;;;;;2.13;0.80;;;;;;;-141.59;100.00;61776.25;5035512;28;20210;-77
2022/12/31 04:17:02;;;;;;;0.60;0.60;;;;;;;-141.59;100.00;61776.25;5026952;28;20210;-78
2022/12/31 04:19:29;;;;;;;0.93;0.60;;;;;;;-141.59;100.00;61776.25;5044833;28;20200;-78
2022/12/31 04:21:56;;;;;;;0.50;0.50;;;;;;;-141.59;100.00;61776.25;5042584;28;20222;-78
2022/12/31 04:24:24;;;;;;;0.83;0.60;;;;;;;-141.59;100.00;61776.25;5029580;28;20207;-78
2022/12/31 04:26:51;;;;;;;1.00;0.70;;;;;;;-141.59;100.00;61776.25;5028968;28;20290;-78
2022/12/31 04:29:18;;;;;;;1.50;1.40;;;;;;;-141.59;100.00;61776.25;5023967;28;20232;-78
2022/12/31 04:31:46;;;;;;;1.20;1.00;;;;;;;-141.59;100.00;61776.25;5022153;28;20211;-78
2022/12/31 04:34:13;;;;;;;1.90;0.93;;;;;;;-141.59;100.00;61776.25;5024304;28;20214;-77
2022/12/31 04:36:40;;;;;;;2.13;0.80;;;;;;;-141.59;100.00;61776.25;5028198;28;20218;-77
2022/12/31 04:39:07;;;;;;;1.30;1.00;;;;;;;-141.59;100.00;61776.25;5037814;28;20198;-78
2022/12/31 04:41:35;;;;;;;1.23;1.00;;;;;;;-141.59;100.00;61776.25;5040811;28;20206;-78
2022/12/31 04:44:02;;;;;;;1.50;1.17;;;;;;;-141.59;100.00;61776.25;5027093;28;20210;-77
2022/12/31 04:46:32;;;;;;;0.80;0.80;;;;;;;-141.59;100.00;61776.25;5025618;28;20203;-78
2022/12/31 04:49:00;;;;;;;0.97;0.87;;;;;;;-141.59;100.00;61776.25;5040170;28;20234;-78
2022/12/31 04:51:30;;;;;;;2.00;1.00;;;;;;;-141.59;100.00;61776.25;5047176;28;20210;-78
2022/12/31 04:53:58;;;;;;;1.73;1.17;;;;;;;-141.59;100.00;61776.25;5045840;28;20207;-78
2022/12/31 04:56:25;;;;;;;0.90;0.90;;;;;;;-141.59;100.00;61776.25;5023879;28;20297;-77
2022/12/31 04:58:54;;;;;;;1.63;1.10;;;;;;;-141.59;100.00;61776.25;5027673;28;20239;-78
2022/12/31 05:01:22;;;;;;;1.10;1.00;;;;;;;-141.59;100.00;61776.25;5048287;28;20203;-78
2022/12/31 05:03:50;;;;;;;1.93;1.17;;;;;;;-141.59;100.00;61776.25;5026423;28;20214;-77
2022/12/31 05:06:18;;;;;;;1.67;1.07;;;;;;;-141.59;100.00;61776.25;5031087;28;20323;-77
2022/12/31 05:08:46;;;;;;;1.00;0.90;;;;;;;-141.59;100.00;61776.25;5039311;28;20210;-78
2022/12/31 05:11:13;;;;;;;1.90;1.27;;;;;;;-141.59;100.00;61776.25;5043514;28;20228;-77
2022/12/31 05:13:41;;;;;;;1.77;1.20;;;;;;;-141.59;100.00;61776.25;5054720;28;20240;-78
2022/12/31 05:16:09;;;;;;;1.50;1.10;;;;;;;-141.59;100.00;61776.25;5035350;28;20195;-77
2022/12/31 05:18:37;;;;;;;1.50;1.10;;;;;;;-141.59;100.00;61776.25;5028989;28;20207;-78
2022/12/31 05:21:06;;;;;;;2.80;1.30;;;;;;;-141.59;100.00;61776.25;5042848;28;20217;-78
2022/12/31 05:23:33;;;;;;;2.43;1.27;;;;;;;-141.59;100.00;61776.25;5034624;28;20215;-78
2022/12/31 05:26:00;;;;;;;1.40;1.20;;;;;;;-141.59;100.00;61776.25;5025936;28;20201;-77
2022/12/31 05:28:27;;;;;;;2.20;1.70;;;;;;;-141.59;100.00;61776.25;5040293;28;20232;-78
2022/12/31 05:30:54;;;;;;;5.13;3.20;;;;;;;-141.59;100.00;61776.25;5026197;28;20199;-77
2022/12/31 05:33:23;;;;;;;1.93;1.30;;;;;;;-141.59;100.00;61776.25;5025994;28;20265;-78
2022/12/31 05:35:50;;;;;;;2.53;1.23;;;;;;;-141.59;100.00;61776.25;5028212;28;20230;-77
2022/12/31 05:38:17;;;;;;;2.20;1.37;;;;;;;-141.59;100.00;61776.25;5023564;28;20242;-77
2022/12/31 05:40:44;;;;;;;1.70;1.20;;;;;;;-141.59;100.00;61776.25;5030927;28;20202;-77
2022/12/31 05:43:11;;;;;;;1.07;1.00;;;;;;;-141.59;100.00;61776.25;5031144;28;20221;-77
2022/12/31 05:45:38;;;;;;;2.10;1.73;;;;;;;-141.59;100.00;61776.25;5052228;28;20209;-78
2022/12/31 05:48:06;;;;;;;2.10;1.27;;;;;;;-141.59;100.00;61776.25;5025650;28;20273;-77
2022/12/31 05:50:34;;;;;;;2.33;1.50;;;;;;;-141.59;100.00;61776.25;5035311;28;20207;-77
2022/12/31 05:53:04;;;;;;;1.03;0.93;;;;;;;-141.59;100.00;61776.25;5024444;28;20207;-77
2022/12/31 05:55:31;;;;;;;1.63;1.20;;;;;;;-141.59;100.00;61776.25;5021903;28;20204;-78
2022/12/31 05:57:58;;;;;;;2.83;1.63;;;;;;;-141.59;100.00;61776.25;5025738;28;20286;-77
2022/12/31 06:00:25;;;;;;;4.67;2.90;;;;;;;-141.59;100.00;61776.25;5035099;28;20210;-77
2022/12/31 06:02:52;;;;;;;3.40;1.60;;;;;;;-141.59;100.00;61776.25;5025935;28;20203;-78
2022/12/31 06:05:19;;;;;;;1.23;1.10;;;;;;;-141.59;100.00;61776.25;5034657;28;20202;-77
2022/12/31 06:07:47;;;;;;;1.37;1.20;;;;;;;-141.59;100.00;61776.25;5030575;28;20203;-77
2022/12/31 06:10:14;;;;;;;2.73;1.70;;;;;;;-141.59;100.00;61776.25;5032036;28;20226;-77
2022/12/31 06:12:41;;;;;;;4.10;1.40;;;;;;;-141.59;100.00;61776.25;5036366;28;20293;-77
2022/12/31 06:15:09;;;;;;;1.30;1.20;;;;;;;-141.59;100.00;61776.25;5042377;28;20206;-77
2022/12/31 06:17:36;;;;;;;1.00;1.00;;;;;;;-141.59;100.00;61776.25;5042053;28;20217;-77
2022/12/31 06:20:04;;;;;;;1.23;1.13;;;;;;;-141.59;100.00;61776.25;5037771;28;20206;-76
2022/12/31 06:22:31;;;;;;;1.30;1.20;;;;;;;-141.59;100.00;61776.25;5023215;28;20211;-78
2022/12/31 06:24:59;;;;;;;1.40;1.10;;;;;;;-141.59;100.00;61776.25;5027160;28;20210;-77
2022/12/31 06:27:26;;;;;;;2.10;1.50;;;;;;;-141.59;100.00;61776.25;5036363;28;20207;-77
2022/12/31 06:29:53;;;;;;;1.90;1.43;;;;;;;-141.59;100.00;61776.25;5027365;28;20230;-76
2022/12/31 06:32:20;;;;;;;1.47;1.30;;;;;;;-141.59;100.00;61776.25;5026986;28;20252;-77
2022/12/31 06:34:48;;;;;;;2.20;1.53;;;;;;;-141.59;100.00;61776.25;5027825;28;20210;-77
2022/12/31 06:37:15;;;;;;;2.17;1.53;;;;;;;-141.59;100.00;61776.25;5022490;28;20334;-77
2022/12/31 06:39:42;;;;;;;1.80;1.27;;;;;;;-141.59;100.00;61776.25;5038409;28;20207;-78
2022/12/31 06:42:10;;;;;;;1.60;1.37;;;;;;;-141.59;100.00;61776.25;5025312;28;20211;-77
2022/12/31 06:44:38;;;;;;;2.03;1.50;;;;;;;-141.59;100.00;61776.25;5025400;28;20199;-77
2022/12/31 06:47:05;;;;;;;2.67;1.40;;;;;;;-141.59;100.00;61776.25;5025764;28;20214;-77
2022/12/31 06:49:32;;;;;;;11.17;1.53;;;;;;;-141.59;100.00;61776.25;5043523;28;20277;-78
2022/12/31 06:51:59;;;;;;;2.80;1.60;;;;;;;-141.59;100.00;61776.25;5048234;28;20206;-78
2022/12/31 06:54:26;;;;;;;2.30;1.80;;;;;;;-141.59;100.00;61776.25;5043548;28;20202;-77
2022/12/31 06:56:53;;;;;;;4.60;1.50;;;;;;;-141.59;100.00;61776.25;5027335;28;20214;-78
2022/12/31 06:59:28;;;;;;;2.47;1.27;;;;;;;-141.59;100.00;61776.25;5031613;28;20207;-77
2022/12/31 07:02:23;;;;;;;2.70;1.23;;;;;;;-141.59;100.00;61776.25;5028699;28;20309;-77
2022/12/31 07:05:22;;;;;;;2.00;1.30;;;;;;;-141.59;100.00;61776.25;5038246;28;20215;-78
2022/12/31 07:07:58;;;;;;;1.57;1.20;;;;;;;-141.59;100.00;61776.25;5019699;28;20262;-79
2022/12/31 07:10:33;;;;;;;2.87;1.30;;;;;;;-141.59;100.00;61776.25;5026532;28;20287;-79
2022/12/31 07:13:29;;;;;;;4.77;3.13;;;;;;;-141.59;100.00;61776.25;5043581;28;20203;-79
2022/12/31 07:16:13;;;;;;;4.77;3.33;;;;;;;-141.59;100.00;61776.25;5017535;28;20199;-80
2022/12/31 07:18:45;;;;;;;3.33;2.00;;;;;;;-141.59;100.00;61776.25;5025773;28;20304;-80
2022/12/31 07:21:15;;;;;;;3.33;2.30;;;;;;;-141.59;100.00;61776.25;5022042;28;20199;-80
2022/12/31 07:23:43;;;;;;;3.23;2.03;;;;;;;-141.59;100.00;61776.25;5032237;28;20202;-80
2022/12/31 07:26:22;;;;;;;5.03;2.30;;;;;;;-141.59;100.00;61776.25;5028981;28;20210;-80
2022/12/31 07:29:00;;;;;;;3.70;2.30;;;;;;;-141.59;100.00;61776.25;5045902;28;20250;-79
2022/12/31 07:31:42;;;;;;;2.80;1.37;;;;;;;-141.59;100.00;61776.25;5022037;28;20217;-80
2022/12/31 07:34:23;;;;;;;1.63;1.20;;;;;;;-141.59;100.00;61776.25;5049063;28;20225;-80
2022/12/31 07:37:03;;;;;;;1.57;1.20;;;;;;;-141.59;100.00;61776.25;5034759;28;20239;-80
2022/12/31 07:39:41;;;;;;;1.10;1.00;;;;;;;-141.59;100.00;61776.25;5035712;28;20289;-80
2022/12/31 07:42:16;;;;;;;1.20;1.10;;;;;;;-141.59;100.00;61776.25;5026673;28;20218;-80
2022/12/31 07:44:58;;;;;;;1.20;1.00;;;;;;;-141.59;100.00;61776.25;5023808;28;20228;-79
2022/12/31 07:47:28;;;;;;;1.33;1.10;;;;;;;-141.59;100.00;61776.25;5020230;28;20203;-80
2022/12/31 07:49:57;;;;;;;3.77;2.10;;;;;;;-141.59;100.00;61776.25;5025768;28;20284;-79
2022/12/31 07:52:25;;;;;;;3.57;2.50;;;;;;;-141.59;100.00;61776.25;5051670;28;20292;-80
2022/12/31 07:54:52;;;;;;;3.87;2.50;;;;;;;-141.59;100.00;61776.25;5030231;28;20214;-80
2022/12/31 07:57:20;;;;;;;5.17;1.97;;;;;;;-141.59;100.00;61776.25;5042896;28;20206;-79
2022/12/31 08:00:03;;;;;;;2.67;1.77;;;;;;;-141.59;100.00;61776.25;5040758;28;20208;-80
2022/12/31 08:03:01;;;;;;;2.20;1.50;;;;;;;-141.59;100.00;61776.25;5027958;28;20203;-80
2022/12/31 08:05:33;;;;;;;3.90;2.00;;;;;;;-141.59;100.00;61776.25;5039368;28;20211;-80
2022/12/31 08:08:11;;;;;;;2.60;1.80;;;;;;;-141.59;100.00;61776.25;5016097;28;20211;-80
2022/12/31 08:10:53;;;;;;;4.30;2.00;;;;;;;-141.59;100.00;61776.25;5035747;28;20326;-80
2022/12/31 08:13:21;;;;;;;3.10;1.90;;;;;;;-141.59;100.00;61776.25;5039362;28;20213;-80
2022/12/31 08:15:48;;;;;;;2.60;1.90;;;;;;;-141.59;100.00;61776.25;5029257;28;20206;-80
2022/12/31 08:18:17;;;;;;;3.03;1.90;;;;;;;-141.59;100.00;61776.25;5041879;28;20206;-80
2022/12/31 08:20:55;;;;;;;3.10;1.80;;;;;;;-141.59;100.00;61776.25;5021503;28;20200;-80
2022/12/31 08:23:28;;;;;;;1.90;1.40;;;;;;;-141.59;100.00;61776.25;5028277;28;20210;-80
2022/12/31 08:26:23;;;;;;;4.13;2.17;;;;;;;-141.59;100.00;61776.25;5036963;28;20216;-79
2022/12/31 08:29:15;;;;;;;3.30;2.13;;;;;;;-141.59;100.00;61776.25;5045152;28;20300;-79
2022/12/31 08:31:52;;;;;;;4.00;2.10;;;;;;;-141.59;100.00;61776.25;5027342;28;20215;-80
2022/12/31 08:34:28;;;;;;;5.13;2.00;;;;;;;-141.59;100.00;61776.25;5039762;28;20297;-79
2022/12/31 08:37:03;;;;;;;2.93;2.13;;;;;;;-141.59;100.00;61776.25;5035424;28;20241;-80
2022/12/31 08:39:48;;;;;;;3.90;2.33;;;;;;;-141.59;100.00;61776.25;5026885;28;20202;-80
2022/12/31 08:42:25;;;;;;;3.37;2.40;;;;;;;-141.59;100.00;61776.25;5041735;28;20201;-80
2022/12/31 08:45:03;;;;;;;3.73;2.50;;;;;;;-141.59;100.00;61776.25;5026831;28;20213;-77
2022/12/31 08:47:37;;;;;;;3.73;1.80;;;;;;;-141.59;100.00;61776.25;5023844;28;20238;-77
2022/12/31 08:50:12;;;;;;;2.83;1.97;;;;;;;-141.59;100.00;61776.25;5019467;28;20224;-78
2022/12/31 08:52:40;;;;;;;3.30;1.87;;;;;;;-141.59;100.00;61776.25;5028457;28;20203;-77
2022/12/31 08:55:08;;;;;;;3.57;2.80;;;;;;;-141.59;100.00;61776.25;5025990;28;20194;-79
2022/12/31 08:57:42;;;;;;;2.27;1.70;;;;;;;-141.59;100.00;61776.25;5041499;28;20199;-79
2022/12/31 09:00:12;;;;;;;2.30;1.70;;;;;;;-141.59;100.00;61776.25;5046509;28;20506;-80
2022/12/31 09:02:58;;;;;;;3.43;1.50;;;;;;;-141.59;100.00;61776.25;5027280;28;20203;-80
2022/12/31 09:05:33;;;;;;;2.30;1.60;;;;;;;-141.59;100.00;61776.25;5015449;28;20206;-79
2022/12/31 09:08:08;;;;;;;1.63;1.40;;;;;;;-141.59;100.00;61776.25;5035722;28;20215;-80
2022/12/31 09:10:44;;;;;;;2.93;1.70;;;;;;;-141.59;100.00;61776.25;5019424;28;20307;-79
2022/12/31 09:13:23;;;;;;;1.97;1.60;;;;;;;-141.59;100.00;61776.25;5017247;28;20218;-79
2022/12/31 09:15:58;;;;;;;1.97;1.60;;;;;;;-141.59;100.00;61776.25;5039293;28;20238;-79
2022/12/31 09:18:25;;;;;;;5.97;2.77;;;;;;;-141.59;100.00;61776.25;5019393;28;20313;-80
2022/12/31 09:20:55;;;;;;;1.87;1.40;;;;;;;-141.59;100.00;61776.25;5023409;28;20207;-80
2022/12/31 09:23:22;;;;;;;3.20;1.60;;;;;;;-141.59;100.00;61776.25;5026079;28;20230;-80
2022/12/31 09:26:00;;;;;;;3.47;2.00;;;;;;;-141.59;100.00;61776.25;5044035;28;20213;-81
2022/12/31 09:28:39;;;;;;;2.27;1.70;;;;;;;-141.59;100.00;61776.25;5027860;28;20199;-80
2022/12/31 09:31:14;;;;;;;1.60;1.50;;;;;;;-141.59;100.00;61776.25;5028799;28;20223;-79
2022/12/31 09:33:51;;;;;;;2.00;1.40;;;;;;;-141.59;100.00;61776.25;5023685;28;20206;-80
2022/12/31 09:36:29;;;;;;;1.50;1.30;;;;;;;-141.59;100.00;61776.25;5025448;28;20282;-80
2022/12/31 09:39:03;;;;;;;3.57;1.37;;;;;;;-141.59;100.00;61776.25;5025730;28;20294;-80
2022/12/31 09:41:55;;;;;;;1.67;1.30;;;;;;;-141.59;100.00;61776.25;5028075;28;20268;-80
2022/12/31 09:44:52;;;;;;;2.10;1.20;;;;;;;-141.59;100.00;61776.25;5001137;28;20227;-80
2022/12/31 09:48:08;;;;;;;3.77;2.23;;;;;;;-141.59;100.00;61776.25;5001631;28;20298;-80
2022/12/31 09:50:54;;;;;;;2.60;1.60;;;;;;;-141.59;100.00;61776.25;5028533;28;20439;-79
2022/12/31 09:53:38;;;;;;;3.60;2.30;;;;;;;-141.59;100.00;61776.25;5025843;28;20222;-80
2022/12/31 09:56:13;;;;;;;3.30;1.70;;;;;;;-141.59;100.00;61776.25;5019492;28;20229;-79
2022/12/31 09:58:45;;;;;;;2.53;1.57;;;;;;;-141.59;100.00;61776.25;5041308;28;20241;-80
2022/12/31 10:01:23;;;;;;;2.07;1.57;;;;;;;-141.59;100.00;61776.25;5047493;28;20198;-79
2022/12/31 10:04:23;;;;;;;1.90;1.50;;;;;;;-141.59;100.00;61776.25;5022453;28;20341;-79
2022/12/31 10:07:01;;;;;;;2.10;1.80;;;;;;;-141.59;100.00;61776.25;5044681;28;20627;-79
2022/12/31 10:09:43;;;;;;;2.40;1.47;;;;;;;-141.59;100.00;61776.25;5031155;28;20243;-79
2022/12/31 10:12:40;;;;;;;1.93;1.40;;;;;;;-141.59;100.00;61776.25;5022351;28;20210;-79
2022/12/31 10:15:33;;;;;;;3.00;2.23;;;;;;;-141.59;100.00;61776.25;5012511;28;20207;-79
2022/12/31 10:18:13;;;;;;;3.87;2.00;;;;;;;-141.59;100.00;61776.25;5033485;28;20271;-79
2022/12/31 10:20:54;;;;;;;3.80;2.10;;;;;;;-141.59;100.00;61776.25;5021513;28;20198;-79
2022/12/31 10:23:52;;;;;;;3.37;1.77;;;;;;;-141.59;100.00;61776.25;5012739;28;20214;-79
2022/12/31 10:26:33;;;;;;;2.40;1.80;;;;;;;-141.59;100.00;61776.25;4985867;28;20208;-79
2022/12/31 10:29:23;;;;;;;4.43;2.30;;;;;;;-141.59;100.00;61776.25;5045276;28;20207;-79
2022/12/31 10:32:01;;;;;;;1.37;1.23;;;;;;;-141.59;100.00;61776.25;5032561;28;20286;-79
2022/12/31 10:34:41;;;;;;;1.57;1.00;;;;;;;-141.59;100.00;61776.25;5028336;28;20233;-79
2022/12/31 10:37:15;;;;;;;0.70;0.70;;;;;;;-141.59;100.00;61776.25;5032706;28;20317;-80
2022/12/31 10:39:55;;;;;;;0.50;0.50;;;;;;;-141.59;100.00;61776.25;5040329;28;20210;-79
2022/12/31 10:42:56;;;;;;;0.50;0.50;;;;;;;-141.59;100.00;61776.25;5035984;28;20302;-79
2022/12/31 10:46:15;;;;;;;0.60;0.60;;;;;;;-141.59;100.00;61776.25;5019158;28;20216;-80
2022/12/31 10:49:07;;;;;;;0.60;0.60;;;;;;;-141.59;100.00;61776.25;5029975;28;20217;-80
2022/12/31 10:51:59;;;;;;;0.50;0.50;;;;;;;-141.59;100.00;61776.25;5028873;28;20237;-80
2022/12/31 10:54:58;;;;;;;0.67;0.67;;;;;;;-141.59;100.00;61776.25;5049773;28;20261;-80
2022/12/31 10:57:56;;;;;;;1.47;1.00;;;;;;;-141.59;100.00;61776.25;5028335;28;20214;-80
2022/12/31 11:00:29;;;;;;;0.70;0.70;;;;;;;-141.59;100.00;61776.25;5047592;28;20233;-80
2022/12/31 11:03:26;;;;;;;0.50;0.50;;;;;;;-141.59;100.00;61776.25;5029063;28;20230;-80
2022/12/31 11:06:30;;;;;;;0.93;0.80;;;;;;;-141.59;100.00;61776.25;5009124;28;20207;-80
2022/12/31 11:09:33;;;;;;;0.50;0.50;;;;;;;-141.59;100.00;61776.25;5029983;28;20215;-80
2022/12/31 11:12:12;;;;;;;0.50;0.50;;;;;;;-141.59;100.00;61776.25;5019495;28;20249;-80
2022/12/31 11:15:08;;;;;;;2.92;2.30;;;;;;;-141.59;100.00;61776.25;5031122;28;20288;-80
2022/12/31 11:17:51;;;;;;;0.55;0.55;;;;;;;-141.59;100.00;61776.25;5040189;28;20245;-80
2022/12/31 11:20:48;;;;;;;0.70;0.70;;;;;;;-141.59;100.00;61776.25;5030434;28;20217;-80
2022/12/31 11:23:31;;;;;;;0.75;0.60;;;;;;;-141.59;100.00;61776.25;4994469;28;20215;-80
2022/12/31 11:26:09;;;;;;;1.13;0.75;;;;;;;-141.59;100.00;61776.25;5047661;28;20234;-80
2022/12/31 11:28:52;;;;;;;0.80;0.70;;;;;;;-141.59;100.00;61776.25;5028118;28;20201;-82
2022/12/31 11:31:32;;;;;;;0.68;0.68;;;;;;;-141.59;100.00;61776.25;5046923;28;20246;-82
2022/12/31 11:34:16;;;;;;;0.70;0.70;;;;;;;-141.59;100.00;61776.25;5047432;28;20301;-82
2022/12/31 11:36:55;;;;;;;1.85;1.40;;;;;;;-141.59;100.00;61776.25;5025179;28;20286;-82
2022/12/31 11:39:46;;;;;;;2.70;1.30;;;;;;;-141.59;100.00;61776.25;5025462;28;20211;-82
2022/12/31 11:42:20;;;;;;;1.50;1.30;;;;;;;-141.59;100.00;61776.25;5037456;28;20298;-82
2022/12/31 11:44:55;;;;;;;2.37;1.43;;;;;;;-141.59;100.00;61776.25;5022883;28;20233;-82
2022/12/31 11:47:47;;;;;;;4.33;1.60;;;;;;;-141.59;100.00;61776.25;5019057;28;20310;-80
2022/12/31 11:50:28;;;;;;;1.93;1.27;;;;;;;-141.59;100.00;61776.25;5041224;28;20246;-81
2022/12/31 11:53:29;;;;;;;6.73;1.83;;;;;;;-141.59;100.00;61776.25;5031410;28;20221;-80
2022/12/31 11:56:09;;;;;;;1.60;1.50;;;;;;;-141.59;100.00;61776.25;4978281;28;20207;-79
2022/12/31 11:58:37;;;;;;;1.70;1.60;;;;;;;-141.59;100.00;61776.25;5020563;28;20206;-79